Scout — WCZ2046 — position and weather

sailwx.info

Track history (hours):
 
Tides and Currents Weather Stations Pressure Air Temp Water Temp Dewpoint Dewpoint Depression Visibility Wind Speed Wind Dir Waves Ship Positions

Scout

Owner: Crowley Marine Services, SEATTLE, WA. More information available from US FCC via Universal Licensing System and Coast Guard Vessel Documentation Center.

Last reported at 2015-May-28 15:26 UTC. Time now 2015-May-28 18:13 UTC.
Position N 32°42' W 117°09'.

; draft 5.6 m.

Type: Tug. MMSI: 366764730.

Date/timePositionNaut miles runAvg speedWind from/ knotsBaromVisibWave heightAir tempDewpointWater temp
2015-May-28 15:26N 32°42' W 117°09'0 0.0
2015-May-28 09:09N 32°42' W 117°09'2 0.5
2015-May-28 05:33N 32°40' W 117°08'0 0.3
2015-May-28 04:33N 32°41' W 117°08'1 0.3
2015-May-27 23:22N 32°42' W 117°09'2 3.0
2015-May-27 22:33N 32°40' W 117°08'2 0.7
2015-May-27 19:08N 32°42' W 117°09'0 0.0
2015-May-27 14:25N 32°42' W 117°09'3 3.5
2015-May-27 13:33N 32°39' W 117°07'3 2.5
2015-May-27 12:20N 32°42' W 117°09'2 1.0
2015-May-27 10:33N 32°40' W 117°08'0 0.4
2015-May-27 09:33N 32°41' W 117°08'1 0.1
2015-May-26 19:18N 32°42' W 117°09'0 0.0
2015-May-26 18:23N 32°42' W 117°09'0 0.0
2015-May-26 16:29N 32°42' W 117°09'0 0.0
2015-May-25 13:33N 32°42' W 117°10'0 0.1
2015-May-25 12:33N 32°42' W 117°10'0 0.0
2015-May-24 01:20N 32°42' W 117°09'3 4.4
2015-May-24 00:33N 32°39' W 117°07'3 0.6
2015-May-23 18:25N 32°42' W 117°09'0 0.0
2015-May-23 16:28N 32°42' W 117°09'3 3.0
2015-May-23 15:33N 32°39' W 117°07'1 1.3
2015-May-23 14:33N 32°41' W 117°08'2 2.5
2015-May-23 13:33N 32°42' W 117°10'1 0.2
2015-May-23 07:33N 32°42' W 117°09'1 0.8
2015-May-23 06:33N 32°41' W 117°09'2 0.2
2015-May-22 19:33N 32°39' W 117°07'0 0.1
2015-May-22 18:33N 32°39' W 117°07'0 0.2
2015-May-22 17:33N 32°39' W 117°07'6 6.0
2015-May-22 16:33N 32°42' W 117°14'3 3.0
2015-May-22 15:33N 32°42' W 117°10'2 1.4
2015-May-22 14:19N 32°41' W 117°09'0 0.2
2015-May-22 13:25N 32°41' W 117°09'0 0.3
2015-May-22 12:33N 32°41' W 117°09'1 0.8
2015-May-22 11:34N 32°42' W 117°10'1 0.3
2015-May-22 09:32N 32°42' W 117°09'1 0.6
2015-May-22 08:33N 32°42' W 117°10'4 3.9
2015-May-22 07:34N 32°39' W 117°07'3 0.1
2015-May-21 01:21N 32°42' W 117°09'3 3.7
2015-May-21 00:33N 32°39' W 117°07'1 0.7
2015-May-20 23:33N 32°40' W 117°08'2 2.2
2015-May-20 22:33N 32°42' W 117°09'0 0.0
2015-May-20 18:14N 32°42' W 117°09'4 6.0
2015-May-20 17:33N 32°42' W 117°14'1 1.4
2015-May-20 16:33N 32°41' W 117°14'3 3.0
2015-May-20 15:33N 32°43' W 117°11'3 2.2
2015-May-20 14:15N 32°41' W 117°08'1 1.2
2015-May-20 13:23N 32°42' W 117°09'3 3.7
2015-May-20 12:33N 32°39' W 117°07'3 3.0
2015-May-20 11:33N 32°42' W 117°09'0 0.0
2015-May-20 08:10N 32°42' W 117°09'1 0.9
2015-May-20 07:33N 32°41' W 117°09'0 0.1
2015-May-20 06:33N 32°41' W 117°09'0 0.1
2015-May-20 05:34N 32°41' W 117°09'1 0.2
2015-May-20 00:33N 32°42' W 117°10'1 0.2
2015-May-19 22:17N 32°42' W 117°09'0 0.2
2015-May-19 20:09N 32°42' W 117°10'0 0.0
2015-May-19 06:26N 32°42' W 117°09'0 0.0
2015-May-19 05:33N 32°42' W 117°09'3 3.0
2015-May-19 04:33N 32°39' W 117°07'3 2.8
2015-May-19 03:30N 32°42' W 117°09'0 0.0
2015-May-19 02:33N 32°42' W 117°09'0 0.0
2015-May-18 23:10N 32°42' W 117°09'3 4.5
2015-May-18 22:33N 32°39' W 117°07'2 2.3
2015-May-18 21:33N 32°41' W 117°09'1 1.4
2015-May-18 20:33N 32°40' W 117°08'2 0.8
2015-May-18 18:04N 32°42' W 117°09'0 0.0
2015-May-18 16:08N 32°42' W 117°09'  
Track history (hours):
 
Tides and Currents Weather Stations Pressure Air Temp Water Temp Dewpoint Dewpoint Depression Visibility Wind Speed Wind Dir Waves Ship Positions

Scout

Owner: Crowley Marine Services, SEATTLE, WA. More information available from US FCC via Universal Licensing System and Coast Guard Vessel Documentation Center.

Last reported at 2015-May-28 15:26 UTC. Time now 2015-May-28 18:13 UTC.
Position N 32°42' W 117°09'.

; draft 5.6 m.

Type: Tug. MMSI: 366764730.

Date/timePositionNaut miles runAvg speedWind from/ knotsBaromVisibWave heightAir tempDewpointWater temp
2015-May-28 15:26N 32°42' W 117°09'0 0.0
2015-May-28 09:09N 32°42' W 117°09'2 0.5
2015-May-28 05:33N 32°40' W 117°08'0 0.3
2015-May-28 04:33N 32°41' W 117°08'1 0.3
2015-May-27 23:22N 32°42' W 117°09'2 3.0
2015-May-27 22:33N 32°40' W 117°08'2 0.7
2015-May-27 19:08N 32°42' W 117°09'0 0.0
2015-May-27 14:25N 32°42' W 117°09'3 3.5
2015-May-27 13:33N 32°39' W 117°07'3 2.5
2015-May-27 12:20N 32°42' W 117°09'2 1.0
2015-May-27 10:33N 32°40' W 117°08'0 0.4
2015-May-27 09:33N 32°41' W 117°08'1 0.1
2015-May-26 19:18N 32°42' W 117°09'0 0.0
2015-May-26 18:23N 32°42' W 117°09'0 0.0
2015-May-26 16:29N 32°42' W 117°09'0 0.0
2015-May-25 13:33N 32°42' W 117°10'0 0.1
2015-May-25 12:33N 32°42' W 117°10'0 0.0
2015-May-24 01:20N 32°42' W 117°09'3 4.4
2015-May-24 00:33N 32°39' W 117°07'3 0.6
2015-May-23 18:25N 32°42' W 117°09'0 0.0
2015-May-23 16:28N 32°42' W 117°09'3 3.0
2015-May-23 15:33N 32°39' W 117°07'1 1.3
2015-May-23 14:33N 32°41' W 117°08'2 2.5
2015-May-23 13:33N 32°42' W 117°10'1 0.2
2015-May-23 07:33N 32°42' W 117°09'1 0.8
2015-May-23 06:33N 32°41' W 117°09'2 0.2
2015-May-22 19:33N 32°39' W 117°07'0 0.1
2015-May-22 18:33N 32°39' W 117°07'0 0.2
2015-May-22 17:33N 32°39' W 117°07'6 6.0
2015-May-22 16:33N 32°42' W 117°14'3 3.0
2015-May-22 15:33N 32°42' W 117°10'2 1.4
2015-May-22 14:19N 32°41' W 117°09'0 0.2
2015-May-22 13:25N 32°41' W 117°09'0 0.3
2015-May-22 12:33N 32°41' W 117°09'1 0.8
2015-May-22 11:34N 32°42' W 117°10'1 0.3
2015-May-22 09:32N 32°42' W 117°09'1 0.6
2015-May-22 08:33N 32°42' W 117°10'4 3.9
2015-May-22 07:34N 32°39' W 117°07'3 0.1
2015-May-21 01:21N 32°42' W 117°09'3 3.7
2015-May-21 00:33N 32°39' W 117°07'1 0.7
2015-May-20 23:33N 32°40' W 117°08'2 2.2
2015-May-20 22:33N 32°42' W 117°09'0 0.0
2015-May-20 18:14N 32°42' W 117°09'4 6.0
2015-May-20 17:33N 32°42' W 117°14'1 1.4
2015-May-20 16:33N 32°41' W 117°14'3 3.0
2015-May-20 15:33N 32°43' W 117°11'3 2.2
2015-May-20 14:15N 32°41' W 117°08'1 1.2
2015-May-20 13:23N 32°42' W 117°09'3 3.7
2015-May-20 12:33N 32°39' W 117°07'3 3.0
2015-May-20 11:33N 32°42' W 117°09'0 0.0
2015-May-20 08:10N 32°42' W 117°09'1 0.9
2015-May-20 07:33N 32°41' W 117°09'0 0.1
2015-May-20 06:33N 32°41' W 117°09'0 0.1
2015-May-20 05:34N 32°41' W 117°09'1 0.2
2015-May-20 00:33N 32°42' W 117°10'1 0.2
2015-May-19 22:17N 32°42' W 117°09'0 0.2
2015-May-19 20:09N 32°42' W 117°10'0 0.0
2015-May-19 06:26N 32°42' W 117°09'0 0.0
2015-May-19 05:33N 32°42' W 117°09'3 3.0
2015-May-19 04:33N 32°39' W 117°07'3 2.8
2015-May-19 03:30N 32°42' W 117°09'0 0.0
2015-May-19 02:33N 32°42' W 117°09'0 0.0
2015-May-18 23:10N 32°42' W 117°09'3 4.5
2015-May-18 22:33N 32°39' W 117°07'2 2.3
2015-May-18 21:33N 32°41' W 117°09'1 1.4
2015-May-18 20:33N 32°40' W 117°08'2 0.8
2015-May-18 18:04N 32°42' W 117°09'0 0.0
2015-May-18 16:08N 32°42' W 117°09'  

Dump ship's entire track history